Time;durP1;ratioP1;P1;durP2;ratioP2;P2;SDS_P1;SDS_P2;PMS_P1;PMS_P2;Temp;Humidity;BMP_temperature;BMP_pressure;BME280_temperature;BME280_humidity;BME280_pressure;Samples;Min_cycle;Max_cycle;Signal;HPM_P1;HPM_P2
2022/01/07 00:00:30;;;;;;;17.30;7.28;;;1.70;99.90;;;;;;12468627;28;20103;-38
2022/01/07 00:06:32;;;;;;;19.95;6.55;;;1.80;99.90;;;;;;12466777;28;20049;-38
2022/01/07 00:12:35;;;;;;;18.50;6.65;;;1.90;99.90;;;;;;12468242;28;20057;-36
2022/01/07 00:18:40;;;;;;;17.60;6.43;;;1.80;99.90;;;;;;12467085;28;20106;-36
2022/01/07 00:24:42;;;;;;;23.90;6.72;;;1.80;99.90;;;;;;12465230;28;20057;-37
2022/01/07 00:30:44;;;;;;;21.23;6.40;;;1.90;99.90;;;;;;12465723;28;20057;-36
2022/01/07 00:36:46;;;;;;;17.48;6.55;;;1.90;99.90;;;;;;12466771;28;20057;-36
2022/01/07 00:42:50;;;;;;;15.98;5.72;;;2.00;99.90;;;;;;12467393;28;20045;-36
2022/01/07 00:48:52;;;;;;;13.48;6.53;;;2.00;99.90;;;;;;12465980;28;20123;-38
2022/01/07 00:54:55;;;;;;;20.67;5.63;;;2.00;99.90;;;;;;12464679;28;20148;-38
2022/01/07 01:00:57;;;;;;;12.73;5.15;;;2.10;99.90;;;;;;12467296;28;20049;-39
2022/01/07 01:07:00;;;;;;;19.10;5.38;;;2.10;99.90;;;;;;12466583;28;20176;-36
2022/01/07 01:13:02;;;;;;;15.13;4.50;;;2.20;99.90;;;;;;12466037;28;20177;-36
2022/01/07 01:19:06;;;;;;;10.48;4.18;;;2.20;99.90;;;;;;12464510;28;20045;-38
2022/01/07 01:25:09;;;;;;;12.38;4.13;;;2.20;99.90;;;;;;12467503;28;20794;-36
2022/01/07 01:31:14;;;;;;;12.32;4.13;;;2.20;99.90;;;;;;12462651;28;20332;-36
2022/01/07 01:37:16;;;;;;;17.23;4.00;;;2.20;99.90;;;;;;12465727;28;20077;-39
2022/01/07 01:43:18;;;;;;;13.95;3.67;;;2.30;99.90;;;;;;12461076;28;20053;-38
2022/01/07 01:49:21;;;;;;;13.88;4.78;;;2.30;99.90;;;;;;12466128;28;20057;-39
2022/01/07 01:55:25;;;;;;;9.27;3.92;;;2.30;99.90;;;;;;12463085;28;20053;-36
2022/01/07 02:01:27;;;;;;;11.85;3.42;;;2.30;99.90;;;;;;12465572;28;20535;-38
2022/01/07 02:07:34;;;;;;;9.75;3.50;;;2.40;99.90;;;;;;12460270;28;20050;-38
2022/01/07 02:13:36;;;;;;;12.50;2.88;;;2.40;99.90;;;;;;12460436;28;20057;-36
2022/01/07 02:19:38;;;;;;;11.57;2.85;;;2.40;99.90;;;;;;12460979;28;20334;-39
2022/01/07 02:25:42;;;;;;;9.68;2.90;;;2.40;99.90;;;;;;12456287;28;20916;-38
2022/01/07 02:31:43;;;;;;;10.05;3.28;;;2.40;99.90;;;;;;12459032;28;20144;-39
2022/01/07 02:37:46;;;;;;;11.30;3.63;;;2.40;99.90;;;;;;12467450;28;21536;-36
2022/01/07 02:43:48;;;;;;;10.13;3.25;;;2.40;99.90;;;;;;12461061;28;20444;-37
2022/01/07 02:49:50;;;;;;;9.52;3.13;;;2.50;99.90;;;;;;12471562;28;20049;-37
2022/01/07 02:55:52;;;;;;;12.27;3.50;;;2.50;99.90;;;;;;12470494;28;20510;-36
2022/01/07 03:01:54;;;;;;;9.07;2.80;;;2.50;99.90;;;;;;12468937;28;20079;-36
2022/01/07 03:07:56;;;;;;;8.50;3.50;;;2.60;99.90;;;;;;12468372;28;20060;-36
2022/01/07 03:13:58;;;;;;;11.05;3.15;;;2.50;99.90;;;;;;12468631;28;20350;-36
2022/01/07 03:20:00;;;;;;;9.52;2.63;;;2.50;99.90;;;;;;12471516;28;20142;-38
2022/01/07 03:26:04;;;;;;;10.77;2.97;;;2.50;99.90;;;;;;12471210;28;20049;-36
2022/01/07 03:32:06;;;;;;;8.05;2.75;;;2.50;99.90;;;;;;12469960;28;20088;-36
2022/01/07 03:38:08;;;;;;;15.25;3.65;;;2.50;99.90;;;;;;12467580;28;20053;-36
2022/01/07 03:44:10;;;;;;;12.75;2.67;;;2.50;99.90;;;;;;12462816;28;20129;-36
2022/01/07 03:50:15;;;;;;;12.27;3.40;;;2.50;99.90;;;;;;12467809;28;20053;-37
2022/01/07 03:56:20;;;;;;;9.25;2.97;;;2.50;99.90;;;;;;12467609;28;20084;-36
2022/01/07 04:02:22;;;;;;;11.43;3.30;;;2.40;99.90;;;;;;12465950;28;20554;-38
2022/01/07 04:08:24;;;;;;;11.93;3.17;;;2.30;99.90;;;;;;12465457;28;20046;-38
2022/01/07 04:14:27;;;;;;;11.90;3.35;;;2.20;99.90;;;;;;12466448;28;20620;-38
2022/01/07 04:20:31;;;;;;;13.70;4.18;;;2.00;99.90;;;;;;12467596;28;20136;-38
2022/01/07 04:26:33;;;;;;;12.30;4.15;;;2.00;99.90;;;;;;12463708;28;20057;-36
2022/01/07 04:32:37;;;;;;;11.88;3.80;;;1.80;99.90;;;;;;12466973;28;20060;-38
2022/01/07 04:38:39;;;;;;;15.15;4.50;;;1.80;99.90;;;;;;12450357;28;20084;-38
2022/01/07 04:44:42;;;;;;;13.90;4.85;;;1.80;99.90;;;;;;12466417;28;20129;-38
2022/01/07 04:50:44;;;;;;;15.95;4.90;;;1.80;99.90;;;;;;12466762;28;20152;-37
2022/01/07 04:56:46;;;;;;;12.43;4.65;;;1.80;99.90;;;;;;12465651;28;21367;-38
2022/01/07 05:02:48;;;;;;;16.95;4.63;;;1.70;99.90;;;;;;12467494;28;20061;-36
2022/01/07 05:08:50;;;;;;;11.93;4.95;;;1.80;99.90;;;;;;12467182;28;20046;-36
2022/01/07 05:14:52;;;;;;;13.98;5.78;;;1.70;99.90;;;;;;12466097;28;20056;-39
2022/01/07 05:20:54;;;;;;;15.48;5.57;;;1.70;99.90;;;;;;12463189;28;20053;-38
2022/01/07 05:26:56;;;;;;;13.15;5.20;;;1.60;99.90;;;;;;12465599;28;20064;-36
2022/01/07 05:32:58;;;;;;;13.75;5.25;;;1.60;99.90;;;;;;12464975;28;20053;-36
2022/01/07 05:39:00;;;;;;;12.55;4.70;;;1.60;99.90;;;;;;12463997;28;20110;-36
2022/01/07 05:45:03;;;;;;;12.43;5.45;;;1.60;99.90;;;;;;12464092;28;20132;-38
2022/01/07 05:51:05;;;;;;;13.38;5.18;;;1.60;99.90;;;;;;12460927;28;20046;-38
2022/01/07 05:57:07;;;;;;;13.90;5.15;;;1.60;99.90;;;;;;12463481;28;20146;-36
2022/01/07 06:03:09;;;;;;;15.80;5.80;;;1.60;99.90;;;;;;12461458;28;20537;-36
2022/01/07 06:09:11;;;;;;;14.23;5.57;;;1.50;99.90;;;;;;12464260;28;20704;-39
2022/01/07 06:15:13;;;;;;;17.20;6.75;;;1.50;99.90;;;;;;12472928;28;20497;-38
2022/01/07 06:21:16;;;;;;;19.25;6.55;;;1.50;99.90;;;;;;12471761;28;20087;-36
2022/01/07 06:27:18;;;;;;;15.43;7.35;;;1.50;99.90;;;;;;12471331;28;20477;-39
2022/01/07 06:33:20;;;;;;;12.77;5.97;;;1.40;99.90;;;;;;12470405;28;20053;-36
2022/01/07 06:39:23;;;;;;;14.70;6.50;;;1.40;99.90;;;;;;12476025;28;20467;-36
2022/01/07 06:45:25;;;;;;;10.75;6.25;;;1.40;99.90;;;;;;12476632;28;20557;-40
2022/01/07 06:51:31;;;;;;;13.70;7.00;;;1.40;99.90;;;;;;12477143;28;20058;-38
2022/01/07 06:57:33;;;;;;;19.00;7.38;;;1.30;99.90;;;;;;12478934;28;20656;-36
2022/01/07 07:03:35;;;;;;;13.02;6.72;;;1.40;99.90;;;;;;12474514;28;20057;-38
2022/01/07 07:09:37;;;;;;;16.20;6.63;;;1.40;99.90;;;;;;12475568;28;20529;-38
2022/01/07 07:15:42;;;;;;;10.30;5.00;;;1.40;99.90;;;;;;12473139;28;20064;-36
2022/01/07 07:21:44;;;;;;;19.02;7.07;;;1.40;99.90;;;;;;12607530;23;20484;-91
2022/01/07 07:27:47;;;;;;;18.63;7.53;;;1.50;99.90;;;;;;12426212;28;20679;-88
2022/01/07 07:46:22;;;;;;;12.63;7.20;;;1.60;99.90;;;;;;12294020;28;20502;-84
2022/01/07 07:52:24;;;;;;;15.18;7.55;;;1.60;99.90;;;;;;12263224;28;21713;-82
2022/01/07 08:05:59;;;;;;;15.02;6.88;;;1.70;99.90;;;;;;12250955;28;20069;-84
2022/01/07 08:12:18;;;;;;;11.67;7.10;;;1.70;99.90;;;;;;12301974;28;20198;-83
2022/01/07 08:18:22;;;;;;;15.23;6.20;;;1.80;99.90;;;;;;12270983;28;20050;-83
2022/01/07 08:24:24;;;;;;;11.27;6.40;;;1.80;99.90;;;;;;12289320;28;20526;-82
2022/01/07 08:30:29;;;;;;;11.63;6.05;;;1.80;99.90;;;;;;12292219;28;20054;-84
2022/01/07 08:36:33;;;;;;;11.85;5.68;;;1.90;99.90;;;;;;12286164;28;20054;-83
2022/01/07 08:42:37;;;;;;;10.57;6.00;;;1.90;99.90;;;;;;12289577;28;20097;-82
2022/01/07 08:48:39;;;;;;;12.98;6.40;;;2.00;99.90;;;;;;12288871;28;20059;-83
2022/01/07 08:54:41;;;;;;;13.35;6.47;;;2.00;99.90;;;;;;12519445;22;20149;-87
2022/01/07 09:00:43;;;;;;;13.10;6.28;;;2.00;99.90;;;;;;12293354;28;20046;-88
2022/01/07 09:06:46;;;;;;;12.85;6.72;;;1.90;99.90;;;;;;12387594;28;20050;-88
2022/01/07 09:12:49;;;;;;;12.55;6.80;;;1.90;99.90;;;;;;12371399;28;20445;-88
2022/01/07 09:18:51;;;;;;;13.43;6.38;;;2.00;99.90;;;;;;12385622;28;20570;-87
2022/01/07 09:24:53;;;;;;;12.65;6.28;;;2.00;99.90;;;;;;12379696;28;20052;-90
2022/01/07 09:30:55;;;;;;;11.63;6.45;;;2.00;99.90;;;;;;12390258;28;20081;-89
2022/01/07 09:36:57;;;;;;;13.45;6.78;;;2.00;99.90;;;;;;12382963;28;20062;-90
2022/01/07 09:43:04;;;;;;;11.20;7.95;;;2.00;99.90;;;;;;12403397;28;20053;-91
2022/01/07 09:49:06;;;;;;;17.05;9.27;;;2.10;99.90;;;;;;12397565;28;20126;-88
2022/01/07 09:55:08;;;;;;;13.60;8.18;;;2.20;99.90;;;;;;12357744;28;20061;-89
2022/01/07 10:01:16;;;;;;;15.48;9.02;;;2.20;99.90;;;;;;12337435;28;20058;-88
2022/01/07 10:07:26;;;;;;;15.68;9.73;;;2.30;99.90;;;;;;12347735;28;20490;-89
2022/01/07 10:13:28;;;;;;;15.75;8.43;;;2.40;99.90;;;;;;12378458;28;20157;-90
2022/01/07 10:19:45;;;;;;;17.42;8.88;;;2.50;99.90;;;;;;12387312;28;20053;-87
2022/01/07 10:25:47;;;;;;;14.50;9.18;;;2.50;99.90;;;;;;12373635;28;20110;-88
2022/01/07 10:31:49;;;;;;;18.85;9.43;;;2.60;99.90;;;;;;12378524;28;20129;-87
2022/01/07 10:37:59;;;;;;;16.63;9.65;;;2.60;99.90;;;;;;12390844;28;20062;-87
2022/01/07 10:44:04;;;;;;;19.30;10.00;;;2.70;99.90;;;;;;12368114;28;20744;-86
2022/01/07 10:50:24;;;;;;;14.55;8.20;;;2.70;99.90;;;;;;12378423;28;20055;-89
2022/01/07 10:56:40;;;;;;;18.48;9.13;;;2.80;99.90;;;;;;12378571;28;20599;-85
2022/01/07 11:02:43;;;;;;;15.48;9.15;;;2.90;99.90;;;;;;12379535;28;20096;-87
2022/01/07 11:08:48;;;;;;;18.15;8.38;;;2.90;99.90;;;;;;12394794;28;20058;-88
2022/01/07 11:14:50;;;;;;;17.42;8.85;;;2.90;99.90;;;;;;12401092;28;20050;-87
2022/01/07 11:20:52;;;;;;;13.20;9.13;;;2.90;99.90;;;;;;12389539;28;20045;-88
2022/01/07 11:27:02;;;;;;;22.52;10.40;;;3.00;99.90;;;;;;12393778;28;20544;-86
2022/01/07 11:33:19;;;;;;;19.83;9.82;;;3.00;99.90;;;;;;12388205;28;20475;-88
2022/01/07 11:39:21;;;;;;;14.65;9.38;;;3.10;99.90;;;;;;12376359;28;20467;-89
2022/01/07 11:45:29;;;;;;;15.02;9.00;;;3.10;99.90;;;;;;12400663;28;20107;-87
2022/01/07 11:51:40;;;;;;;19.65;9.95;;;3.10;99.90;;;;;;12370554;28;20512;-89
2022/01/07 11:58:04;;;;;;;14.15;9.45;;;3.10;99.90;;;;;;12373046;28;20168;-87
2022/01/07 12:04:15;;;;;;;21.15;9.63;;;3.10;99.90;;;;;;12386454;28;20050;-87
2022/01/07 12:10:17;;;;;;;19.70;10.32;;;3.10;99.90;;;;;;12368668;28;20516;-86
2022/01/07 12:16:30;;;;;;;18.52;10.18;;;3.20;99.90;;;;;;12338191;28;20136;-88
2022/01/07 12:22:32;;;;;;;20.38;11.15;;;3.20;99.90;;;;;;12359290;28;20492;-88
2022/01/07 12:28:42;;;;;;;21.23;11.48;;;3.20;99.90;;;;;;12333413;28;20060;-87
2022/01/07 12:34:47;;;;;;;21.65;11.45;;;3.20;99.90;;;;;;12368403;28;20096;-86
2022/01/07 12:40:54;;;;;;;19.48;11.32;;;3.30;99.90;;;;;;12375169;28;20072;-88
2022/01/07 12:46:57;;;;;;;16.83;11.07;;;3.30;99.90;;;;;;12353392;28;20060;-85
2022/01/07 12:53:04;;;;;;;20.20;11.57;;;3.30;99.90;;;;;;12387913;28;20520;-88
2022/01/07 12:59:14;;;;;;;19.48;10.48;;;3.40;99.90;;;;;;12366205;28;20465;-89
2022/01/07 13:05:31;;;;;;;19.90;9.80;;;3.50;99.90;;;;;;12376933;28;20050;-87
2022/01/07 13:11:33;;;;;;;17.77;9.45;;;3.50;99.90;;;;;;12386378;28;20573;-87
2022/01/07 13:17:35;;;;;;;17.65;9.75;;;3.60;99.90;;;;;;12371629;28;20077;-88
2022/01/07 13:23:43;;;;;;;16.77;9.52;;;3.70;99.90;;;;;;12367497;28;20066;-87
2022/01/07 13:29:49;;;;;;;16.35;8.88;;;3.70;99.90;;;;;;12374802;28;20815;-86
2022/01/07 13:35:56;;;;;;;16.05;9.38;;;3.70;99.90;;;;;;12377541;28;20147;-88
2022/01/07 13:42:03;;;;;;;17.83;9.13;;;3.80;99.90;;;;;;12369060;28;21147;-88
2022/01/07 13:48:08;;;;;;;15.18;8.93;;;3.80;99.90;;;;;;12377255;28;20742;-86
2022/01/07 13:54:16;;;;;;;16.00;7.90;;;3.80;99.90;;;;;;12384415;28;20065;-87
2022/01/07 14:00:18;;;;;;;13.90;8.05;;;3.80;99.90;;;;;;12371543;28;20559;-88
2022/01/07 14:06:22;;;;;;;15.57;8.38;;;3.80;99.90;;;;;;12374221;28;20077;-87
2022/01/07 14:12:24;;;;;;;12.52;8.18;;;3.80;99.90;;;;;;12375941;28;20100;-87
2022/01/07 14:18:29;;;;;;;15.98;8.48;;;3.80;99.90;;;;;;12373765;28;20046;-87
2022/01/07 14:24:32;;;;;;;16.67;7.85;;;3.80;99.90;;;;;;12383434;28;20069;-87
2022/01/07 14:30:34;;;;;;;12.40;8.18;;;3.80;99.90;;;;;;12370826;28;20531;-87
2022/01/07 14:36:36;;;;;;;16.95;7.80;;;3.80;99.90;;;;;;12397281;28;20141;-85
2022/01/07 14:42:38;;;;;;;13.55;7.97;;;3.80;99.90;;;;;;12394592;28;20050;-89
2022/01/07 14:48:40;;;;;;;12.00;7.53;;;3.80;99.90;;;;;;12376023;28;20054;-87
2022/01/07 14:54:42;;;;;;;12.45;7.50;;;3.90;99.90;;;;;;12382002;28;20054;-88
2022/01/07 15:00:47;;;;;;;12.88;7.55;;;3.90;99.90;;;;;;12375274;28;20074;-86
2022/01/07 15:06:50;;;;;;;10.15;6.63;;;3.80;99.90;;;;;;12412079;28;20137;-87
2022/01/07 15:12:52;;;;;;;11.63;5.90;;;3.80;99.90;;;;;;12385065;28;20042;-86
2022/01/07 15:18:53;;;;;;;10.50;5.80;;;3.80;99.90;;;;;;12385244;28;20104;-88
2022/01/07 15:24:55;;;;;;;13.35;6.10;;;3.80;99.90;;;;;;12377082;28;20467;-88
2022/01/07 15:30:57;;;;;;;9.23;5.55;;;3.80;99.90;;;;;;12377036;28;20137;-86
2022/01/07 15:36:59;;;;;;;10.65;5.10;;;3.80;99.90;;;;;;12386468;28;20487;-87
2022/01/07 15:43:01;;;;;;;8.95;5.00;;;3.80;99.90;;;;;;12379822;28;20398;-87
2022/01/07 15:49:04;;;;;;;9.75;5.13;;;3.60;99.90;;;;;;12373136;28;20055;-85
2022/01/07 15:55:06;;;;;;;8.45;4.70;;;3.60;99.90;;;;;;12393006;28;20050;-87
2022/01/07 16:01:08;;;;;;;8.80;5.28;;;3.50;99.90;;;;;;12377187;28;20731;-86
2022/01/07 16:07:10;;;;;;;11.18;5.47;;;3.40;99.90;;;;;;12382672;28;20084;-88
2022/01/07 16:13:12;;;;;;;9.23;5.22;;;3.40;99.90;;;;;;12367722;28;20041;-86
2022/01/07 16:19:14;;;;;;;10.38;5.88;;;3.40;99.90;;;;;;12362356;28;20795;-87
2022/01/07 16:25:17;;;;;;;10.82;5.85;;;3.40;99.90;;;;;;12388040;28;20128;-85
2022/01/07 16:31:19;;;;;;;13.85;7.00;;;3.50;99.90;;;;;;12382487;28;20098;-86
2022/01/07 16:37:21;;;;;;;10.82;6.45;;;3.50;99.90;;;;;;12390555;28;20075;-85
2022/01/07 16:43:28;;;;;;;9.02;5.13;;;3.50;99.90;;;;;;12373367;28;20053;-87
2022/01/07 16:49:30;;;;;;;8.30;4.93;;;3.40;99.90;;;;;;12373382;28;20856;-89
2022/01/07 16:55:52;;;;;;;8.30;5.20;;;3.40;99.90;;;;;;12370715;28;20417;-88
2022/01/07 17:01:53;;;;;;;12.70;5.75;;;3.40;99.90;;;;;;12376775;28;20127;-87
2022/01/07 17:07:55;;;;;;;8.32;5.50;;;3.30;99.90;;;;;;12374928;28;20068;-86
2022/01/07 17:13:57;;;;;;;6.65;3.78;;;3.30;99.90;;;;;;12375307;28;20044;-86
2022/01/07 17:20:00;;;;;;;6.03;3.50;;;3.30;99.90;;;;;;12378411;28;20053;-87
2022/01/07 17:26:02;;;;;;;6.78;3.47;;;3.30;99.90;;;;;;12388324;28;20085;-87
2022/01/07 17:32:04;;;;;;;7.95;3.72;;;3.20;99.90;;;;;;12371728;28;20065;-87
2022/01/07 17:38:06;;;;;;;6.03;3.33;;;3.20;99.90;;;;;;12384697;28;20049;-89
2022/01/07 17:44:08;;;;;;;9.60;4.57;;;3.10;99.90;;;;;;12369157;28;20084;-85
2022/01/07 17:50:15;;;;;;;7.53;4.78;;;3.10;99.90;;;;;;12363664;28;20054;-85
2022/01/07 17:56:17;;;;;;;8.32;4.90;;;3.00;99.90;;;;;;12355746;28;20502;-86
2022/01/07 18:02:19;;;;;;;8.35;5.07;;;2.90;99.90;;;;;;12370218;28;20133;-86
2022/01/07 18:08:21;;;;;;;6.18;4.45;;;2.80;99.90;;;;;;12359688;28;20057;-86
2022/01/07 18:14:24;;;;;;;6.22;5.00;;;2.90;99.90;;;;;;12370020;28;20698;-86
2022/01/07 18:20:27;;;;;;;9.20;6.13;;;2.90;99.90;;;;;;12391134;28;20131;-87
2022/01/07 18:26:29;;;;;;;10.70;6.72;;;2.90;99.90;;;;;;12373409;28;20145;-85
2022/01/07 18:32:31;;;;;;;10.82;6.10;;;3.00;99.90;;;;;;12376249;28;20038;-87
2022/01/07 18:38:33;;;;;;;9.63;6.68;;;3.00;99.90;;;;;;12390545;28;20077;-85
2022/01/07 18:44:35;;;;;;;11.13;6.57;;;3.10;99.90;;;;;;12365852;28;20097;-88
2022/01/07 18:50:37;;;;;;;8.40;5.43;;;3.20;99.90;;;;;;12371944;28;20057;-86
2022/01/07 18:56:39;;;;;;;7.10;3.92;;;3.20;99.90;;;;;;12385144;28;20108;-85
2022/01/07 19:02:42;;;;;;;5.20;2.42;;;3.10;99.90;;;;;;12386938;28;21385;-86
2022/01/07 19:08:44;;;;;;;2.63;1.67;;;3.00;99.90;;;;;;12371693;28;20053;-88
2022/01/07 19:14:46;;;;;;;3.38;1.50;;;2.80;99.90;;;;;;12368742;28;20042;-87
2022/01/07 19:20:53;;;;;;;4.40;2.00;;;2.70;99.90;;;;;;12384062;28;20058;-86
2022/01/07 19:26:55;;;;;;;2.25;1.27;;;2.50;99.90;;;;;;12384649;28;20058;-87
2022/01/07 19:32:56;;;;;;;5.70;1.75;;;2.40;99.90;;;;;;12384843;28;20490;-86
2022/01/07 19:38:58;;;;;;;3.15;1.30;;;2.30;99.90;;;;;;12393874;28;20165;-87
2022/01/07 19:45:00;;;;;;;2.08;1.50;;;2.20;99.90;;;;;;12386606;28;20050;-86
2022/01/07 19:51:02;;;;;;;4.55;1.83;;;2.30;99.90;;;;;;12387696;28;20452;-87
2022/01/07 19:57:04;;;;;;;3.67;1.65;;;2.10;99.90;;;;;;12403880;28;20111;-87
2022/01/07 20:03:06;;;;;;;4.85;2.85;;;2.00;99.90;;;;;;12427861;28;20092;-88
2022/01/07 20:09:09;;;;;;;5.20;2.50;;;1.80;99.90;;;;;;12407680;28;20045;-88
2022/01/07 20:15:12;;;;;;;3.42;1.65;;;1.60;99.90;;;;;;12380328;28;20171;-88
2022/01/07 20:21:16;;;;;;;5.10;1.90;;;1.50;99.90;;;;;;12387667;28;20537;-89
2022/01/07 20:27:18;;;;;;;2.43;1.67;;;1.50;99.90;;;;;;12385611;28;20053;-87
2022/01/07 20:33:20;;;;;;;3.75;2.20;;;1.50;99.90;;;;;;12379480;28;20054;-90
2022/01/07 20:39:23;;;;;;;4.38;2.35;;;1.40;99.90;;;;;;12384010;28;20070;-88
2022/01/07 20:45:26;;;;;;;3.53;2.30;;;1.40;99.90;;;;;;12379170;28;20049;-91
2022/01/07 20:51:28;;;;;;;3.83;2.40;;;1.40;99.90;;;;;;12388945;28;20073;-88
2022/01/07 20:57:31;;;;;;;4.38;2.42;;;1.30;99.90;;;;;;12385670;28;20058;-88
2022/01/07 21:03:33;;;;;;;3.58;2.50;;;1.30;99.90;;;;;;12379193;28;20054;-87
2022/01/07 21:09:35;;;;;;;4.60;2.80;;;1.30;99.90;;;;;;12396944;28;20073;-87
2022/01/07 21:15:37;;;;;;;5.75;3.28;;;1.30;99.90;;;;;;12383219;28;20134;-88
2022/01/07 21:21:39;;;;;;;4.75;3.15;;;1.30;99.90;;;;;;12373173;28;20081;-88
2022/01/07 21:27:41;;;;;;;5.55;3.17;;;1.30;99.90;;;;;;12377127;28;20100;-87
2022/01/07 21:33:43;;;;;;;4.80;3.22;;;1.30;99.90;;;;;;12386496;28;20045;-88
2022/01/07 21:39:46;;;;;;;6.00;3.90;;;1.30;99.90;;;;;;12398952;28;20293;-88
2022/01/07 21:45:47;;;;;;;8.65;4.20;;;1.30;99.90;;;;;;12395417;28;20072;-88
2022/01/07 21:51:49;;;;;;;9.40;5.88;;;1.30;99.90;;;;;;12381322;28;20049;-87
2022/01/07 21:57:51;;;;;;;9.98;6.18;;;1.20;99.90;;;;;;12348607;28;1069406;-87
2022/01/07 22:03:55;;;;;;;9.18;5.90;;;1.10;99.90;;;;;;12378407;28;20053;-88
2022/01/07 22:09:57;;;;;;;9.43;6.80;;;1.00;99.90;;;;;;12394005;28;20053;-87
2022/01/07 22:15:59;;;;;;;9.38;6.10;;;1.10;99.90;;;;;;12376947;28;20383;-86
2022/01/07 22:22:02;;;;;;;12.32;6.47;;;1.20;99.90;;;;;;12382676;28;20049;-87
2022/01/07 22:28:04;;;;;;;12.68;7.65;;;1.30;99.90;;;;;;12383891;28;20050;-86
2022/01/07 22:34:06;;;;;;;14.15;8.55;;;1.40;99.90;;;;;;12380096;28;20046;-87
2022/01/07 22:40:09;;;;;;;15.32;10.10;;;1.40;99.90;;;;;;12393711;28;20042;-87
2022/01/07 22:46:11;;;;;;;16.35;10.80;;;1.40;99.90;;;;;;12378294;28;20057;-86
2022/01/07 22:52:13;;;;;;;20.95;12.02;;;1.30;99.90;;;;;;12397796;28;20103;-87
2022/01/07 22:58:15;;;;;;;20.65;11.60;;;1.30;99.90;;;;;;12394209;28;20042;-86
2022/01/07 23:04:17;;;;;;;21.98;13.27;;;1.30;99.90;;;;;;12386994;28;20107;-86
2022/01/07 23:10:20;;;;;;;25.73;14.77;;;1.40;99.90;;;;;;12384821;28;20089;-86
2022/01/07 23:16:26;;;;;;;29.45;16.23;;;1.50;99.90;;;;;;12387308;28;20054;-87
2022/01/07 23:22:28;;;;;;;28.25;15.48;;;1.50;99.90;;;;;;12396655;28;20057;-88
2022/01/07 23:28:30;;;;;;;29.88;16.70;;;1.60;99.90;;;;;;12387946;28;20054;-87
2022/01/07 23:34:32;;;;;;;32.50;17.17;;;1.60;99.90;;;;;;12396826;28;20052;-87
2022/01/07 23:40:41;;;;;;;30.67;17.40;;;1.70;99.90;;;;;;12385107;28;20076;-88
2022/01/07 23:46:43;;;;;;;33.15;18.75;;;1.60;99.90;;;;;;12377945;28;20105;-87
2022/01/07 23:52:45;;;;;;;31.00;17.02;;;1.70;99.90;;;;;;12397958;28;20083;-87
2022/01/07 23:58:47;;;;;;;38.00;20.45;;;1.70;99.90;;;;;;12387175;28;20050;-87
